sensor_id;sensor_type;location;lat;lon;timestamp;pressure;altitude;pressure_sealevel;temperature;humidity
69127;BME280;56688;50.234;19.292;2023-04-26T00:01:30;97952.94;;;7.93;59.68
69127;BME280;56688;50.234;19.292;2023-04-26T00:03:57;97952.73;;;7.87;59.94
69127;BME280;56688;50.234;19.292;2023-04-26T00:06:24;97950.46;;;7.85;60.08
69127;BME280;56688;50.234;19.292;2023-04-26T00:08:53;97951.98;;;7.80;59.98
69127;BME280;56688;50.234;19.292;2023-04-26T00:11:20;97948.23;;;7.74;60.55
69127;BME280;56688;50.234;19.292;2023-04-26T00:13:48;97948.82;;;7.73;60.55
69127;BME280;56688;50.234;19.292;2023-04-26T00:16:15;97948.75;;;7.67;60.46
69127;BME280;56688;50.234;19.292;2023-04-26T00:18:42;97941.58;;;7.64;60.37
69127;BME280;56688;50.234;19.292;2023-04-26T00:21:10;97950.52;;;7.59;60.91
69127;BME280;56688;50.234;19.292;2023-04-26T00:23:37;97948.02;;;7.57;61.52
69127;BME280;56688;50.234;19.292;2023-04-26T00:26:04;97951.39;;;7.59;61.97
69127;BME280;56688;50.234;19.292;2023-04-26T00:28:30;97956.67;;;7.60;62.36
69127;BME280;56688;50.234;19.292;2023-04-26T00:30:57;97958.64;;;7.65;62.79
69127;BME280;56688;50.234;19.292;2023-04-26T00:33:24;97952.75;;;7.65;62.90
69127;BME280;56688;50.234;19.292;2023-04-26T00:35:51;97955.88;;;7.63;63.18
69127;BME280;56688;50.234;19.292;2023-04-26T00:38:18;97959.70;;;7.60;63.82
69127;BME280;56688;50.234;19.292;2023-04-26T00:40:45;97957.32;;;7.60;63.95
69127;BME280;56688;50.234;19.292;2023-04-26T00:43:12;97955.80;;;7.55;64.05
69127;BME280;56688;50.234;19.292;2023-04-26T00:45:39;97955.33;;;7.48;63.94
69127;BME280;56688;50.234;19.292;2023-04-26T00:48:05;97959.59;;;7.43;63.87
69127;BME280;56688;50.234;19.292;2023-04-26T00:50:33;97957.26;;;7.41;63.83
69127;BME280;56688;50.234;19.292;2023-04-26T00:53:01;97959.09;;;7.39;63.02
69127;BME280;56688;50.234;19.292;2023-04-26T00:55:28;97962.48;;;7.37;62.94
69127;BME280;56688;50.234;19.292;2023-04-26T00:57:55;97960.88;;;7.34;62.99
69127;BME280;56688;50.234;19.292;2023-04-26T01:00:23;97964.11;;;7.31;62.16
69127;BME280;56688;50.234;19.292;2023-04-26T01:02:50;97960.10;;;7.26;62.30
69127;BME280;56688;50.234;19.292;2023-04-26T01:05:18;97963.91;;;7.20;61.68
69127;BME280;56688;50.234;19.292;2023-04-26T01:07:45;97961.85;;;7.14;61.44
69127;BME280;56688;50.234;19.292;2023-04-26T01:10:12;97960.98;;;7.07;61.47
69127;BME280;56688;50.234;19.292;2023-04-26T01:12:39;97963.58;;;7.01;61.20
69127;BME280;56688;50.234;19.292;2023-04-26T01:15:08;97959.79;;;6.89;61.62
69127;BME280;56688;50.234;19.292;2023-04-26T01:17:36;97970.84;;;6.84;61.94
69127;BME280;56688;50.234;19.292;2023-04-26T01:20:04;97971.80;;;6.76;61.85
69127;BME280;56688;50.234;19.292;2023-04-26T01:22:33;97969.89;;;6.67;62.01
69127;BME280;56688;50.234;19.292;2023-04-26T01:25:00;97969.40;;;6.62;62.38
69127;BME280;56688;50.234;19.292;2023-04-26T01:27:31;97975.63;;;6.55;63.08
69127;BME280;56688;50.234;19.292;2023-04-26T01:29:58;97978.67;;;6.50;63.50
69127;BME280;56688;50.234;19.292;2023-04-26T01:32:25;97980.70;;;6.43;63.68
69127;BME280;56688;50.234;19.292;2023-04-26T01:34:52;97984.45;;;6.38;63.53
69127;BME280;56688;50.234;19.292;2023-04-26T01:37:19;97983.73;;;6.33;63.89
69127;BME280;56688;50.234;19.292;2023-04-26T01:39:45;97985.27;;;6.24;63.79
69127;BME280;56688;50.234;19.292;2023-04-26T01:42:12;97985.97;;;6.18;64.53
69127;BME280;56688;50.234;19.292;2023-04-26T01:44:39;97991.64;;;6.10;64.76
69127;BME280;56688;50.234;19.292;2023-04-26T01:47:06;97991.48;;;6.02;64.72
69127;BME280;56688;50.234;19.292;2023-04-26T01:49:33;97987.09;;;5.94;64.45
69127;BME280;56688;50.234;19.292;2023-04-26T01:52:00;97993.67;;;5.89;64.75
69127;BME280;56688;50.234;19.292;2023-04-26T01:54:29;97998.84;;;5.80;64.52
69127;BME280;56688;50.234;19.292;2023-04-26T01:56:58;98005.19;;;5.71;64.39
69127;BME280;56688;50.234;19.292;2023-04-26T01:59:26;98008.61;;;5.66;64.86
69127;BME280;56688;50.234;19.292;2023-04-26T02:01:53;98008.77;;;5.59;64.82
69127;BME280;56688;50.234;19.292;2023-04-26T02:04:20;98012.73;;;5.58;64.41
69127;BME280;56688;50.234;19.292;2023-04-26T02:06:47;98009.63;;;5.56;64.28
69127;BME280;56688;50.234;19.292;2023-04-26T02:09:15;98006.39;;;5.53;63.89
69127;BME280;56688;50.234;19.292;2023-04-26T02:11:42;98011.95;;;5.51;64.05
69127;BME280;56688;50.234;19.292;2023-04-26T02:14:09;98010.52;;;5.47;63.73
69127;BME280;56688;50.234;19.292;2023-04-26T02:16:35;98017.16;;;5.43;63.90
69127;BME280;56688;50.234;19.292;2023-04-26T02:19:05;98016.15;;;5.34;63.43
69127;BME280;56688;50.234;19.292;2023-04-26T02:21:55;98014.00;;;5.26;63.73
69127;BME280;56688;50.234;19.292;2023-04-26T02:24:24;98011.33;;;5.18;63.55
69127;BME280;56688;50.234;19.292;2023-04-26T02:26:51;98009.92;;;5.12;63.87
69127;BME280;56688;50.234;19.292;2023-04-26T02:29:20;98011.37;;;5.05;63.69
69127;BME280;56688;50.234;19.292;2023-04-26T02:32:07;98016.91;;;4.97;64.01
69127;BME280;56688;50.234;19.292;2023-04-26T02:34:35;98015.92;;;4.90;63.85
69127;BME280;56688;50.234;19.292;2023-04-26T02:37:01;98020.48;;;4.83;63.95
69127;BME280;56688;50.234;19.292;2023-04-26T02:39:28;98019.69;;;4.77;64.64
69127;BME280;56688;50.234;19.292;2023-04-26T02:41:55;98024.29;;;4.73;64.59
69127;BME280;56688;50.234;19.292;2023-04-26T02:44:23;98023.64;;;4.71;64.78
69127;BME280;56688;50.234;19.292;2023-04-26T02:46:50;98025.66;;;4.70;64.99
69127;BME280;56688;50.234;19.292;2023-04-26T02:49:17;98022.88;;;4.70;65.34
69127;BME280;56688;50.234;19.292;2023-04-26T02:51:44;98025.41;;;4.66;65.12
69127;BME280;56688;50.234;19.292;2023-04-26T02:54:11;98025.94;;;4.63;65.39
69127;BME280;56688;50.234;19.292;2023-04-26T02:56:38;98025.86;;;4.57;65.79
69127;BME280;56688;50.234;19.292;2023-04-26T02:59:05;98033.77;;;4.51;65.82
69127;BME280;56688;50.234;19.292;2023-04-26T03:01:32;98033.13;;;4.43;65.91
69127;BME280;56688;50.234;19.292;2023-04-26T03:03:59;98036.90;;;4.36;66.03
69127;BME280;56688;50.234;19.292;2023-04-26T03:06:27;98030.66;;;4.26;66.46
69127;BME280;56688;50.234;19.292;2023-04-26T03:08:55;98035.75;;;4.20;66.76
69127;BME280;56688;50.234;19.292;2023-04-26T03:11:22;98035.75;;;4.13;67.03
69127;BME280;56688;50.234;19.292;2023-04-26T03:13:49;98037.19;;;4.07;67.42
69127;BME280;56688;50.234;19.292;2023-04-26T03:16:18;98037.42;;;4.04;67.50
69127;BME280;56688;50.234;19.292;2023-04-26T03:18:47;98040.43;;;4.02;67.33
69127;BME280;56688;50.234;19.292;2023-04-26T03:21:14;98039.84;;;4.01;67.53
69127;BME280;56688;50.234;19.292;2023-04-26T03:23:41;98042.02;;;3.99;67.86
69127;BME280;56688;50.234;19.292;2023-04-26T03:26:08;98047.23;;;3.96;67.79
69127;BME280;56688;50.234;19.292;2023-04-26T03:28:35;98044.52;;;3.91;67.89
69127;BME280;56688;50.234;19.292;2023-04-26T03:31:01;98046.01;;;3.87;67.95
69127;BME280;56688;50.234;19.292;2023-04-26T03:33:30;98047.00;;;3.82;67.90
69127;BME280;56688;50.234;19.292;2023-04-26T03:35:57;98051.83;;;3.77;68.17
69127;BME280;56688;50.234;19.292;2023-04-26T03:38:24;98056.69;;;3.72;68.28
69127;BME280;56688;50.234;19.292;2023-04-26T03:40:51;98061.10;;;3.69;68.36
69127;BME280;56688;50.234;19.292;2023-04-26T03:43:18;98065.63;;;3.66;68.49
69127;BME280;56688;50.234;19.292;2023-04-26T03:45:46;98060.95;;;3.63;68.71
69127;BME280;56688;50.234;19.292;2023-04-26T03:48:15;98063.64;;;3.63;68.79
69127;BME280;56688;50.234;19.292;2023-04-26T03:50:44;98065.32;;;3.64;68.85
69127;BME280;56688;50.234;19.292;2023-04-26T03:53:11;98069.77;;;3.65;68.74
69127;BME280;56688;50.234;19.292;2023-04-26T03:55:39;98072.73;;;3.64;68.77
69127;BME280;56688;50.234;19.292;2023-04-26T03:58:06;98077.25;;;3.64;68.85
69127;BME280;56688;50.234;19.292;2023-04-26T04:00:37;98082.31;;;3.61;68.73
69127;BME280;56688;50.234;19.292;2023-04-26T04:03:05;98084.20;;;3.61;68.84
69127;BME280;56688;50.234;19.292;2023-04-26T04:05:33;98091.83;;;3.61;68.99
69127;BME280;56688;50.234;19.292;2023-04-26T04:08:02;98096.35;;;3.61;69.17
69127;BME280;56688;50.234;19.292;2023-04-26T04:10:29;98089.48;;;3.56;69.48
69127;BME280;56688;50.234;19.292;2023-04-26T04:12:56;98099.16;;;3.63;69.81
69127;BME280;56688;50.234;19.292;2023-04-26T04:15:23;98101.11;;;3.68;69.87
69127;BME280;56688;50.234;19.292;2023-04-26T04:17:50;98101.16;;;3.75;69.91
69127;BME280;56688;50.234;19.292;2023-04-26T04:20:17;98101.79;;;3.84;69.67
69127;BME280;56688;50.234;19.292;2023-04-26T04:22:46;98106.35;;;3.97;70.21
69127;BME280;56688;50.234;19.292;2023-04-26T04:25:14;98108.90;;;4.09;69.90
69127;BME280;56688;50.234;19.292;2023-04-26T04:27:42;98109.08;;;4.23;69.32
69127;BME280;56688;50.234;19.292;2023-04-26T04:30:09;98109.17;;;4.38;68.78
69127;BME280;56688;50.234;19.292;2023-04-26T04:32:38;98098.92;;;4.45;68.30
69127;BME280;56688;50.234;19.292;2023-04-26T04:35:06;98114.79;;;4.67;67.78
69127;BME280;56688;50.234;19.292;2023-04-26T04:37:34;98113.99;;;4.79;67.59
69127;BME280;56688;50.234;19.292;2023-04-26T04:40:01;98118.29;;;4.89;66.74
69127;BME280;56688;50.234;19.292;2023-04-26T04:42:30;98124.59;;;4.97;65.89
69127;BME280;56688;50.234;19.292;2023-04-26T04:44:59;98123.89;;;5.06;65.99
69127;BME280;56688;50.234;19.292;2023-04-26T04:47:27;98125.92;;;5.15;65.53
69127;BME280;56688;50.234;19.292;2023-04-26T04:49:55;98129.18;;;5.24;65.38
69127;BME280;56688;50.234;19.292;2023-04-26T04:52:21;98136.14;;;5.35;65.08
69127;BME280;56688;50.234;19.292;2023-04-26T04:54:48;98133.47;;;5.43;65.05
69127;BME280;56688;50.234;19.292;2023-04-26T04:57:15;98130.63;;;5.53;64.70
69127;BME280;56688;50.234;19.292;2023-04-26T04:59:43;98134.97;;;5.64;64.28
69127;BME280;56688;50.234;19.292;2023-04-26T05:02:10;98143.38;;;5.76;63.75
69127;BME280;56688;50.234;19.292;2023-04-26T05:04:38;98140.45;;;5.88;63.16
69127;BME280;56688;50.234;19.292;2023-04-26T05:07:05;98143.48;;;6.02;62.68
69127;BME280;56688;50.234;19.292;2023-04-26T05:09:33;98145.71;;;6.18;62.54
69127;BME280;56688;50.234;19.292;2023-04-26T05:12:01;98152.21;;;6.31;62.17
69127;BME280;56688;50.234;19.292;2023-04-26T05:14:29;98148.42;;;6.47;61.62
69127;BME280;56688;50.234;19.292;2023-04-26T05:16:57;98144.73;;;6.60;60.86
69127;BME280;56688;50.234;19.292;2023-04-26T05:19:24;98147.32;;;6.76;60.25
69127;BME280;56688;50.234;19.292;2023-04-26T05:21:52;98148.08;;;6.91;60.41
69127;BME280;56688;50.234;19.292;2023-04-26T05:24:18;98151.98;;;7.08;59.68
69127;BME280;56688;50.234;19.292;2023-04-26T05:26:46;98155.25;;;7.23;58.99
69127;BME280;56688;50.234;19.292;2023-04-26T05:29:19;98154.84;;;7.40;58.19
69127;BME280;56688;50.234;19.292;2023-04-26T05:31:58;98148.63;;;7.55;57.39
69127;BME280;56688;50.234;19.292;2023-04-26T05:34:40;98145.89;;;7.72;56.89
69127;BME280;56688;50.234;19.292;2023-04-26T05:37:11;98151.47;;;7.89;56.57
69127;BME280;56688;50.234;19.292;2023-04-26T05:39:38;98151.40;;;8.11;55.73
69127;BME280;56688;50.234;19.292;2023-04-26T05:42:05;98148.25;;;8.36;55.04
69127;BME280;56688;50.234;19.292;2023-04-26T05:44:32;98142.69;;;8.69;54.34
69127;BME280;56688;50.234;19.292;2023-04-26T05:47:00;98143.50;;;9.12;53.16
69127;BME280;56688;50.234;19.292;2023-04-26T05:49:27;98141.89;;;9.58;52.85
69127;BME280;56688;50.234;19.292;2023-04-26T05:51:54;98142.36;;;10.04;51.91
69127;BME280;56688;50.234;19.292;2023-04-26T05:54:21;98151.84;;;10.48;49.96
69127;BME280;56688;50.234;19.292;2023-04-26T05:56:48;98151.75;;;10.77;48.62
69127;BME280;56688;50.234;19.292;2023-04-26T05:59:15;98150.73;;;11.08;47.99
69127;BME280;56688;50.234;19.292;2023-04-26T06:01:42;98152.79;;;11.41;46.45
69127;BME280;56688;50.234;19.292;2023-04-26T06:04:10;98147.67;;;11.81;44.93
69127;BME280;56688;50.234;19.292;2023-04-26T06:06:45;98144.73;;;12.28;45.10
69127;BME280;56688;50.234;19.292;2023-04-26T06:09:12;98149.27;;;12.54;43.53
69127;BME280;56688;50.234;19.292;2023-04-26T06:11:39;98155.30;;;12.81;43.00
69127;BME280;56688;50.234;19.292;2023-04-26T06:14:06;98156.11;;;13.09;42.18
69127;BME280;56688;50.234;19.292;2023-04-26T06:16:45;98150.90;;;13.43;41.48
69127;BME280;56688;50.234;19.292;2023-04-26T06:19:12;98157.40;;;13.80;40.23
69127;BME280;56688;50.234;19.292;2023-04-26T06:21:39;98145.65;;;14.05;38.81
69127;BME280;56688;50.234;19.292;2023-04-26T06:24:07;98158.46;;;14.40;39.17
69127;BME280;56688;50.234;19.292;2023-04-26T06:26:35;98162.83;;;14.84;39.41
69127;BME280;56688;50.234;19.292;2023-04-26T06:29:03;98157.16;;;15.23;37.28
69127;BME280;56688;50.234;19.292;2023-04-26T06:31:30;98156.56;;;15.56;37.18
69127;BME280;56688;50.234;19.292;2023-04-26T06:33:57;98150.98;;;16.10;36.41
69127;BME280;56688;50.234;19.292;2023-04-26T06:36:25;98146.19;;;16.49;34.95
69127;BME280;56688;50.234;19.292;2023-04-26T06:38:54;98147.08;;;16.75;34.57
69127;BME280;56688;50.234;19.292;2023-04-26T06:41:21;98147.31;;;16.97;33.75
69127;BME280;56688;50.234;19.292;2023-04-26T06:43:48;98147.23;;;16.90;33.28
69127;BME280;56688;50.234;19.292;2023-04-26T06:46:20;98148.36;;;17.11;33.62
69127;BME280;56688;50.234;19.292;2023-04-26T06:48:53;98154.10;;;17.22;32.97
69127;BME280;56688;50.234;19.292;2023-04-26T06:51:23;98151.23;;;17.25;32.33
69127;BME280;56688;50.234;19.292;2023-04-26T06:53:50;98150.23;;;17.17;31.95
69127;BME280;56688;50.234;19.292;2023-04-26T06:56:18;98152.93;;;17.17;32.46
69127;BME280;56688;50.234;19.292;2023-04-26T06:59:02;98150.04;;;17.35;32.52
69127;BME280;56688;50.234;19.292;2023-04-26T07:01:30;98149.83;;;17.61;32.50
69127;BME280;56688;50.234;19.292;2023-04-26T07:04:01;98154.48;;;17.69;31.58
69127;BME280;56688;50.234;19.292;2023-04-26T07:06:30;98158.80;;;17.58;31.68
69127;BME280;56688;50.234;19.292;2023-04-26T07:08:58;98168.38;;;17.26;32.08
69127;BME280;56688;50.234;19.292;2023-04-26T07:11:27;98165.50;;;16.99;32.30
69127;BME280;56688;50.234;19.292;2023-04-26T07:13:54;98163.69;;;16.78;33.15
69127;BME280;56688;50.234;19.292;2023-04-26T07:16:21;98168.95;;;16.45;32.59
69127;BME280;56688;50.234;19.292;2023-04-26T07:18:49;98170.20;;;16.50;33.81
69127;BME280;56688;50.234;19.292;2023-04-26T07:21:16;98166.23;;;17.01;33.92
69127;BME280;56688;50.234;19.292;2023-04-26T07:23:43;98164.20;;;17.14;32.61
69127;BME280;56688;50.234;19.292;2023-04-26T07:26:10;98166.20;;;16.99;32.22
69127;BME280;56688;50.234;19.292;2023-04-26T07:28:37;98170.27;;;16.80;32.91
69127;BME280;56688;50.234;19.292;2023-04-26T07:31:04;98167.14;;;16.83;33.36
69127;BME280;56688;50.234;19.292;2023-04-26T07:33:34;98170.95;;;16.89;33.13
69127;BME280;56688;50.234;19.292;2023-04-26T07:36:01;98170.80;;;16.75;33.06
69127;BME280;56688;50.234;19.292;2023-04-26T07:38:28;98169.08;;;16.59;32.92
69127;BME280;56688;50.234;19.292;2023-04-26T07:40:55;98177.11;;;16.32;32.85
69127;BME280;56688;50.234;19.292;2023-04-26T07:43:22;98175.46;;;16.15;32.88
69127;BME280;56688;50.234;19.292;2023-04-26T07:45:49;98170.08;;;16.15;32.78
69127;BME280;56688;50.234;19.292;2023-04-26T07:48:16;98169.37;;;16.38;32.63
69127;BME280;56688;50.234;19.292;2023-04-26T07:50:42;98170.33;;;16.76;32.74
69127;BME280;56688;50.234;19.292;2023-04-26T07:53:09;98176.47;;;16.73;32.28
69127;BME280;56688;50.234;19.292;2023-04-26T07:55:36;98183.77;;;16.17;32.93
69127;BME280;56688;50.234;19.292;2023-04-26T07:58:03;98182.73;;;15.73;33.43
69127;BME280;56688;50.234;19.292;2023-04-26T08:00:31;98186.60;;;15.46;34.18
69127;BME280;56688;50.234;19.292;2023-04-26T08:02:58;98184.61;;;15.26;34.37
69127;BME280;56688;50.234;19.292;2023-04-26T08:05:26;98185.59;;;15.63;34.63
69127;BME280;56688;50.234;19.292;2023-04-26T08:07:53;98177.21;;;16.27;33.85
69127;BME280;56688;50.234;19.292;2023-04-26T08:10:20;98174.83;;;16.91;32.51
69127;BME280;56688;50.234;19.292;2023-04-26T08:12:49;98180.20;;;17.10;32.76
69127;BME280;56688;50.234;19.292;2023-04-26T08:15:15;98189.64;;;16.98;32.44
69127;BME280;56688;50.234;19.292;2023-04-26T08:17:42;98183.79;;;16.66;32.37
69127;BME280;56688;50.234;19.292;2023-04-26T08:20:10;98185.42;;;16.45;32.10
69127;BME280;56688;50.234;19.292;2023-04-26T08:22:36;98169.24;;;16.12;32.27
69127;BME280;56688;50.234;19.292;2023-04-26T08:25:04;98189.02;;;15.77;33.03
69127;BME280;56688;50.234;19.292;2023-04-26T08:27:32;98195.55;;;15.12;33.77
69127;BME280;56688;50.234;19.292;2023-04-26T08:30:00;98195.80;;;14.77;35.14
69127;BME280;56688;50.234;19.292;2023-04-26T08:32:27;98197.70;;;14.81;35.52
69127;BME280;56688;50.234;19.292;2023-04-26T08:34:53;98201.08;;;14.99;34.10
69127;BME280;56688;50.234;19.292;2023-04-26T08:37:21;98194.02;;;15.34;34.68
69127;BME280;56688;50.234;19.292;2023-04-26T08:39:47;98195.08;;;15.98;34.12
69127;BME280;56688;50.234;19.292;2023-04-26T08:42:15;98194.00;;;16.39;33.24
69127;BME280;56688;50.234;19.292;2023-04-26T08:44:44;98199.42;;;15.96;32.46
69127;BME280;56688;50.234;19.292;2023-04-26T08:47:16;98200.63;;;15.53;33.08
69127;BME280;56688;50.234;19.292;2023-04-26T08:49:45;98203.98;;;15.09;33.70
69127;BME280;56688;50.234;19.292;2023-04-26T08:52:14;98202.65;;;14.71;34.07
69127;BME280;56688;50.234;19.292;2023-04-26T08:54:45;98204.10;;;14.47;34.34
69127;BME280;56688;50.234;19.292;2023-04-26T08:57:12;98198.04;;;14.33;34.42
69127;BME280;56688;50.234;19.292;2023-04-26T08:59:39;98195.92;;;14.13;35.13
69127;BME280;56688;50.234;19.292;2023-04-26T09:02:06;98198.66;;;13.67;35.43
69127;BME280;56688;50.234;19.292;2023-04-26T09:04:36;98208.04;;;13.16;37.10
69127;BME280;56688;50.234;19.292;2023-04-26T09:07:05;98218.67;;;12.92;37.23
69127;BME280;56688;50.234;19.292;2023-04-26T09:09:35;98216.02;;;12.80;38.01
69127;BME280;56688;50.234;19.292;2023-04-26T09:12:04;98209.02;;;12.91;38.74
69127;BME280;56688;50.234;19.292;2023-04-26T09:14:31;98211.30;;;13.30;39.41
69127;BME280;56688;50.234;19.292;2023-04-26T09:16:58;98207.57;;;13.62;36.56
69127;BME280;56688;50.234;19.292;2023-04-26T09:19:40;98210.80;;;13.45;34.53
69127;BME280;56688;50.234;19.292;2023-04-26T09:22:09;98210.05;;;13.24;35.33
69127;BME280;56688;50.234;19.292;2023-04-26T09:24:51;98214.55;;;13.00;35.53
69127;BME280;56688;50.234;19.292;2023-04-26T09:27:19;98216.05;;;12.96;35.98
69127;BME280;56688;50.234;19.292;2023-04-26T09:35:32;98217.48;;;13.72;37.08
69127;BME280;56688;50.234;19.292;2023-04-26T09:38:01;98223.13;;;13.85;35.40
69127;BME280;56688;50.234;19.292;2023-04-26T09:40:42;98221.92;;;13.67;35.38
69127;BME280;56688;50.234;19.292;2023-04-26T09:43:15;98227.23;;;13.37;35.33
69127;BME280;56688;50.234;19.292;2023-04-26T09:48:13;98225.86;;;12.86;35.50
69127;BME280;56688;50.234;19.292;2023-04-26T09:50:44;98224.88;;;12.81;36.75
69127;BME280;56688;50.234;19.292;2023-04-26T09:55:52;98220.45;;;13.01;35.49
69127;BME280;56688;50.234;19.292;2023-04-26T09:58:19;98212.43;;;12.92;35.38
69127;BME280;56688;50.234;19.292;2023-04-26T10:00:49;98219.50;;;12.61;35.55
69127;BME280;56688;50.234;19.292;2023-04-26T10:03:17;98219.77;;;12.36;36.45
69127;BME280;56688;50.234;19.292;2023-04-26T10:05:45;98220.03;;;12.03;36.27
69127;BME280;56688;50.234;19.292;2023-04-26T10:08:12;98223.57;;;11.82;36.47
69127;BME280;56688;50.234;19.292;2023-04-26T10:10:40;98224.52;;;11.81;36.63
69127;BME280;56688;50.234;19.292;2023-04-26T10:13:08;98209.62;;;12.07;37.05
69127;BME280;56688;50.234;19.292;2023-04-26T10:15:38;98207.80;;;12.45;36.96
69127;BME280;56688;50.234;19.292;2023-04-26T10:18:05;98203.85;;;12.78;35.19
69127;BME280;56688;50.234;19.292;2023-04-26T10:20:33;98207.20;;;12.75;34.21
69127;BME280;56688;50.234;19.292;2023-04-26T10:23:06;98213.60;;;12.69;34.36
69127;BME280;56688;50.234;19.292;2023-04-26T10:25:39;98224.05;;;12.49;36.06
69127;BME280;56688;50.234;19.292;2023-04-26T10:28:08;98232.42;;;12.41;36.31
69127;BME280;56688;50.234;19.292;2023-04-26T10:30:54;98235.84;;;12.39;36.62
69127;BME280;56688;50.234;19.292;2023-04-26T10:33:23;98238.89;;;12.33;36.96
69127;BME280;56688;50.234;19.292;2023-04-26T10:36:01;98236.55;;;12.40;37.74
69127;BME280;56688;50.234;19.292;2023-04-26T10:38:29;98232.58;;;12.53;37.10
69127;BME280;56688;50.234;19.292;2023-04-26T10:44:00;98227.68;;;13.18;36.69
69127;BME280;56688;50.234;19.292;2023-04-26T10:46:49;98227.46;;;13.48;36.87
69127;BME280;56688;50.234;19.292;2023-04-26T10:49:19;98220.70;;;13.78;36.90
69127;BME280;56688;50.234;19.292;2023-04-26T10:52:07;98222.00;;;13.95;35.49
69127;BME280;56688;50.234;19.292;2023-04-26T10:54:53;98226.05;;;13.95;33.76
69127;BME280;56688;50.234;19.292;2023-04-26T10:57:22;98222.16;;;13.82;32.67
69127;BME280;56688;50.234;19.292;2023-04-26T11:05:35;98221.02;;;14.07;33.24
69127;BME280;56688;50.234;19.292;2023-04-26T11:08:05;98229.44;;;14.14;34.52
69127;BME280;56688;50.234;19.292;2023-04-26T11:10:36;98233.10;;;14.09;34.80
69127;BME280;56688;50.234;19.292;2023-04-26T11:13:04;98235.39;;;13.99;34.28
69127;BME280;56688;50.234;19.292;2023-04-26T11:15:31;98232.23;;;13.98;33.53
69127;BME280;56688;50.234;19.292;2023-04-26T11:18:03;98231.77;;;14.12;32.39
69127;BME280;56688;50.234;19.292;2023-04-26T11:20:31;98224.09;;;14.39;31.79
69127;BME280;56688;50.234;19.292;2023-04-26T11:23:00;98216.54;;;14.76;31.85
69127;BME280;56688;50.234;19.292;2023-04-26T11:25:28;98222.31;;;15.09;30.62
69127;BME280;56688;50.234;19.292;2023-04-26T11:27:59;98223.29;;;14.96;30.79
69127;BME280;56688;50.234;19.292;2023-04-26T11:30:29;98223.80;;;15.03;30.24
69127;BME280;56688;50.234;19.292;2023-04-26T11:32:58;98223.41;;;15.08;29.97
69127;BME280;56688;50.234;19.292;2023-04-26T11:35:26;98233.38;;;15.12;30.71
69127;BME280;56688;50.234;19.292;2023-04-26T11:37:57;98237.70;;;15.36;29.86
69127;BME280;56688;50.234;19.292;2023-04-26T11:40:33;98233.58;;;15.52;29.13
69127;BME280;56688;50.234;19.292;2023-04-26T11:43:04;98226.77;;;15.76;30.47
69127;BME280;56688;50.234;19.292;2023-04-26T11:45:32;98214.59;;;16.26;28.82
69127;BME280;56688;50.234;19.292;2023-04-26T11:48:02;98225.59;;;16.13;28.84
69127;BME280;56688;50.234;19.292;2023-04-26T11:50:31;98235.44;;;15.94;29.67
69127;BME280;56688;50.234;19.292;2023-04-26T11:53:00;98233.29;;;15.85;28.97
69127;BME280;56688;50.234;19.292;2023-04-26T11:55:28;98239.27;;;15.75;29.04
69127;BME280;56688;50.234;19.292;2023-04-26T11:57:58;98235.80;;;16.12;28.66
69127;BME280;56688;50.234;19.292;2023-04-26T12:00:26;98229.67;;;16.83;28.02
69127;BME280;56688;50.234;19.292;2023-04-26T12:02:53;98225.94;;;17.65;28.28
69127;BME280;56688;50.234;19.292;2023-04-26T12:05:26;98227.66;;;18.29;27.32
69127;BME280;56688;50.234;19.292;2023-04-26T12:07:55;98229.74;;;18.86;26.79
69127;BME280;56688;50.234;19.292;2023-04-26T12:10:27;98238.98;;;18.92;25.95
69127;BME280;56688;50.234;19.292;2023-04-26T12:12:55;98239.44;;;18.90;27.25
69127;BME280;56688;50.234;19.292;2023-04-26T12:15:27;98248.48;;;19.01;26.33
69127;BME280;56688;50.234;19.292;2023-04-26T12:20:27;98251.52;;;17.88;24.45
69127;BME280;56688;50.234;19.292;2023-04-26T12:22:58;98245.55;;;17.10;25.25
69127;BME280;56688;50.234;19.292;2023-04-26T12:25:25;98240.89;;;16.60;26.73
69127;BME280;56688;50.234;19.292;2023-04-26T12:27:52;98244.27;;;16.27;27.48
69127;BME280;56688;50.234;19.292;2023-04-26T12:30:19;98235.81;;;15.63;28.02
69127;BME280;56688;50.234;19.292;2023-04-26T12:33:00;98244.50;;;15.12;29.51
69127;BME280;56688;50.234;19.292;2023-04-26T12:35:43;98237.48;;;15.59;30.06
69127;BME280;56688;50.234;19.292;2023-04-26T12:38:10;98235.02;;;16.07;29.18
69127;BME280;56688;50.234;19.292;2023-04-26T12:40:38;98225.20;;;16.58;27.61
69127;BME280;56688;50.234;19.292;2023-04-26T12:43:05;98224.25;;;17.08;26.76
69127;BME280;56688;50.234;19.292;2023-04-26T12:45:33;98220.64;;;17.49;26.56
69127;BME280;56688;50.234;19.292;2023-04-26T12:48:00;98217.85;;;17.42;26.04
69127;BME280;56688;50.234;19.292;2023-04-26T12:50:26;98228.23;;;17.64;27.82
69127;BME280;56688;50.234;19.292;2023-04-26T12:52:53;98227.06;;;18.25;25.66
69127;BME280;56688;50.234;19.292;2023-04-26T12:55:20;98231.19;;;18.23;25.63
69127;BME280;56688;50.234;19.292;2023-04-26T12:57:47;98233.73;;;18.05;25.17
69127;BME280;56688;50.234;19.292;2023-04-26T13:00:15;98231.35;;;18.23;25.16
69127;BME280;56688;50.234;19.292;2023-04-26T13:02:44;98226.66;;;18.43;24.87
69127;BME280;56688;50.234;19.292;2023-04-26T13:05:12;98228.98;;;18.23;25.08
69127;BME280;56688;50.234;19.292;2023-04-26T13:07:42;98233.50;;;17.89;25.29
69127;BME280;56688;50.234;19.292;2023-04-26T13:10:09;98241.63;;;17.53;25.60
69127;BME280;56688;50.234;19.292;2023-04-26T13:12:38;98246.66;;;17.10;26.36
69127;BME280;56688;50.234;19.292;2023-04-26T13:15:06;98247.79;;;16.77;27.47
69127;BME280;56688;50.234;19.292;2023-04-26T13:17:35;98239.64;;;16.72;26.58
69127;BME280;56688;50.234;19.292;2023-04-26T13:20:04;98240.13;;;16.89;26.73
69127;BME280;56688;50.234;19.292;2023-04-26T13:22:32;98230.65;;;17.45;25.80
69127;BME280;56688;50.234;19.292;2023-04-26T13:24:59;98233.65;;;17.43;25.31